createdAt,value
2019-02-02T00:00:28.262Z,88.75
2019-02-02T00:01:28.253Z,88.70
2019-02-02T00:02:28.244Z,88.95
2019-02-02T00:03:28.240Z,88.75
2019-02-02T00:04:28.219Z,89.10
2019-02-02T00:05:28.243Z,89.31
2019-02-02T00:06:28.203Z,89.26
2019-02-02T00:07:28.186Z,89.06
2019-02-02T00:08:28.184Z,89.68
2019-02-02T00:09:28.172Z,89.68
2019-02-02T00:10:28.163Z,89.58
2019-02-02T00:11:28.172Z,89.47
2019-02-02T00:12:28.139Z,89.47
2019-02-02T00:13:28.132Z,89.58
2019-02-02T00:14:28.120Z,89.58
2019-02-02T00:15:28.110Z,89.68
2019-02-02T00:16:28.110Z,89.78
2019-02-02T00:17:28.084Z,89.89
2019-02-02T00:18:28.077Z,89.78
2019-02-02T00:19:28.176Z,90.10
2019-02-02T00:20:28.050Z,90.31
2019-02-02T00:21:28.049Z,90.31
2019-02-02T00:22:28.038Z,90.35
2019-02-02T00:23:28.067Z,89.72
2019-02-02T00:24:28.009Z,90.14
2019-02-02T00:25:27.999Z,90.00
2019-02-02T00:26:27.992Z,90.03
2019-02-02T00:27:27.977Z,89.68
2019-02-02T00:28:27.973Z,89.89
2019-02-02T00:29:27.969Z,89.93
2019-02-02T00:30:27.949Z,89.78
2019-02-02T00:31:27.939Z,90.03
2019-02-02T00:32:27.934Z,90.31
2019-02-02T00:33:27.914Z,90.45
2019-02-02T00:34:27.903Z,90.56
2019-02-02T00:35:27.897Z,90.83
2019-02-02T00:36:27.889Z,90.03
2019-02-02T00:37:27.908Z,90.62
2019-02-02T00:38:27.867Z,90.72
2019-02-02T00:39:27.852Z,90.31
2019-02-02T00:40:27.845Z,90.56
2019-02-02T00:41:27.837Z,90.93
2019-02-02T00:42:27.821Z,90.62
2019-02-02T00:43:27.815Z,90.41
2019-02-02T00:44:27.802Z,90.45
2019-02-02T00:45:27.792Z,90.41
2019-02-02T00:46:27.775Z,90.56
2019-02-02T00:47:27.772Z,90.52
2019-02-02T00:48:27.798Z,90.72
2019-02-02T00:49:27.745Z,90.31
2019-02-02T00:50:27.741Z,90.62
2019-02-02T00:51:27.724Z,90.97
2019-02-02T00:52:27.715Z,90.72
2019-02-02T00:53:27.705Z,90.62
2019-02-02T00:54:27.703Z,90.72
2019-02-02T00:55:27.684Z,90.83
2019-02-02T00:56:27.672Z,90.62
2019-02-02T00:57:27.661Z,90.93
2019-02-02T00:58:27.653Z,90.93
2019-02-02T00:59:27.677Z,90.52
2019-02-02T01:00:27.638Z,90.93
2019-02-02T01:01:27.623Z,91.04
2019-02-02T01:02:27.619Z,90.93
2019-02-02T01:03:27.600Z,90.83
2019-02-02T01:04:27.588Z,91.14
2019-02-02T01:05:27.586Z,91.04
2019-02-02T01:06:27.572Z,90.83
2019-02-02T01:07:27.556Z,90.83
2019-02-02T01:08:27.545Z,91.04
2019-02-02T01:09:27.535Z,91.35
2019-02-02T01:10:27.571Z,90.83
2019-02-02T01:11:27.515Z,91.35
2019-02-02T01:12:27.504Z,91.35
2019-02-02T01:13:27.496Z,91.77
2019-02-02T01:14:27.487Z,91.46
2019-02-02T01:15:27.476Z,91.56
2019-02-02T01:16:27.476Z,91.35
2019-02-02T01:17:27.455Z,91.66
2019-02-02T01:18:27.447Z,91.56
2019-02-02T01:19:27.431Z,91.35
2019-02-02T01:20:27.423Z,91.46
2019-02-02T01:21:27.417Z,91.97
2019-02-02T01:22:27.399Z,91.41
2019-02-02T01:23:27.388Z,91.46
2019-02-02T01:24:27.377Z,91.77
2019-02-02T01:25:27.367Z,91.87
2019-02-02T01:26:27.368Z,91.87
2019-02-02T01:27:27.353Z,92.08
2019-02-02T01:28:27.339Z,91.77
2019-02-02T01:29:27.327Z,91.77
2019-02-02T01:30:27.312Z,91.77
2019-02-02T01:31:27.304Z,91.77
2019-02-02T01:32:27.323Z,92.50
2019-02-02T01:33:27.286Z,91.77
2019-02-02T01:34:27.276Z,92.81
2019-02-02T01:35:27.264Z,92.60
2019-02-02T01:36:27.255Z,92.29
2019-02-02T01:37:27.239Z,92.18
2019-02-02T01:38:27.270Z,92.40
2019-02-02T01:39:27.217Z,92.29
2019-02-02T01:40:27.208Z,92.40
2019-02-02T01:41:27.196Z,92.40
2019-02-02T01:42:27.210Z,92.40
2019-02-02T01:43:27.176Z,92.29
2019-02-02T01:44:27.180Z,92.40
2019-02-02T01:45:27.165Z,92.29
2019-02-02T01:46:27.150Z,92.40
2019-02-02T01:47:27.139Z,92.18
2019-02-02T01:48:27.135Z,92.71
2019-02-02T01:49:27.115Z,92.50
2019-02-02T01:50:27.107Z,92.60
2019-02-02T01:51:27.096Z,92.40
2019-02-02T01:52:27.087Z,92.91
2019-02-02T01:53:27.086Z,92.91
2019-02-02T01:54:27.064Z,93.02
2019-02-02T01:55:27.050Z,92.91
2019-02-02T01:56:27.045Z,93.12
2019-02-02T01:57:27.034Z,92.81
2019-02-02T01:58:27.069Z,93.12
2019-02-02T01:59:27.008Z,92.91
2019-02-02T02:00:27.002Z,93.33
2019-02-02T02:01:26.986Z,93.44
2019-02-02T02:02:26.981Z,92.91
2019-02-02T02:03:26.965Z,93.23
2019-02-02T02:04:26.973Z,93.54
2019-02-02T02:05:26.947Z,93.44
2019-02-02T02:06:26.940Z,92.91
2019-02-02T02:07:26.923Z,92.91
2019-02-02T02:08:26.917Z,92.81
2019-02-02T02:09:26.916Z,93.27
2019-02-02T02:10:26.891Z,93.54
2019-02-02T02:11:26.883Z,93.44
2019-02-02T02:12:26.875Z,93.02
2019-02-02T02:13:26.875Z,93.33
2019-02-02T02:14:26.849Z,93.02
2019-02-02T02:15:26.846Z,93.54
2019-02-02T02:16:26.829Z,93.90
2019-02-02T02:17:26.820Z,93.54
2019-02-02T02:18:26.814Z,93.33
2019-02-02T02:19:26.804Z,93.44
2019-02-02T02:20:26.824Z,93.23
2019-02-02T02:21:26.775Z,92.81
2019-02-02T02:22:26.765Z,93.75
2019-02-02T02:23:26.754Z,93.65
2019-02-02T02:24:26.750Z,93.33
2019-02-02T02:25:26.734Z,93.69
2019-02-02T02:26:26.735Z,93.48
2019-02-02T02:27:26.712Z,93.54
2019-02-02T02:28:28.192Z,93.54
2019-02-02T02:29:26.696Z,93.33
2019-02-02T02:30:26.691Z,93.79
2019-02-02T02:31:26.670Z,93.54
2019-02-02T02:32:26.677Z,93.90
2019-02-02T02:33:26.655Z,93.54
2019-02-02T02:34:26.646Z,93.54
2019-02-02T02:35:26.664Z,93.69
2019-02-02T02:36:26.632Z,93.90
2019-02-02T02:37:26.608Z,93.48
2019-02-02T02:38:26.599Z,93.90
2019-02-02T02:39:26.594Z,93.79
2019-02-02T02:40:26.587Z,94.31
2019-02-02T02:41:26.581Z,94.52
2019-02-02T02:42:26.568Z,94.63
2019-02-02T02:43:26.546Z,94.63
2019-02-02T02:44:26.539Z,94.73
2019-02-02T02:45:26.530Z,94.52
2019-02-02T02:46:26.530Z,94.73
2019-02-02T02:47:26.508Z,95.36
2019-02-02T02:48:26.508Z,95.36
2019-02-02T02:49:26.482Z,95.25
2019-02-02T02:50:26.472Z,94.84
2019-02-02T02:51:26.461Z,95.25
2019-02-02T02:52:26.458Z,94.94
2019-02-02T02:53:26.449Z,95.04
2019-02-02T02:54:26.429Z,95.15
2019-02-02T02:55:26.423Z,95.15
2019-02-02T02:56:26.420Z,95.15
2019-02-02T02:57:26.408Z,95.15
2019-02-02T02:58:26.392Z,94.94
2019-02-02T02:59:26.390Z,95.46
2019-02-02T03:00:26.365Z,95.25
2019-02-02T03:01:26.360Z,95.56
2019-02-02T03:02:26.357Z,95.25
2019-02-02T03:03:26.337Z,95.61
2019-02-02T03:04:26.331Z,95.82
2019-02-02T03:05:26.326Z,95.92
2019-02-02T03:06:26.310Z,95.50
2019-02-02T03:07:26.300Z,96.13
2019-02-02T03:08:26.296Z,96.44
2019-02-02T03:09:26.278Z,96.44
2019-02-02T03:10:26.289Z,97.17
2019-02-02T03:11:26.256Z,96.76
2019-02-02T03:12:26.245Z,96.76
2019-02-02T03:13:26.280Z,96.76
2019-02-02T03:14:26.222Z,96.66
2019-02-02T03:15:26.212Z,96.66
2019-02-02T03:16:26.203Z,96.66
2019-02-02T03:17:26.190Z,96.86
2019-02-02T03:18:26.175Z,96.66
2019-02-02T03:19:26.201Z,96.92
2019-02-02T03:20:26.155Z,96.66
2019-02-02T03:21:26.271Z,96.86
2019-02-02T03:22:26.141Z,96.86
2019-02-02T03:23:26.132Z,96.86
2019-02-02T03:24:26.113Z,96.97
2019-02-02T03:25:26.141Z,96.92
2019-02-02T03:26:26.117Z,96.76
2019-02-02T03:27:26.088Z,96.76
2019-02-02T03:28:26.069Z,96.86
2019-02-02T03:29:26.071Z,97.03
2019-02-02T03:30:26.065Z,96.82
2019-02-02T03:31:26.057Z,97.07
2019-02-02T03:32:26.033Z,96.66
2019-02-02T03:33:26.020Z,96.55
2019-02-02T03:34:26.137Z,96.97
2019-02-02T03:35:26.037Z,96.55
2019-02-02T03:36:25.986Z,96.40
2019-02-02T03:37:25.975Z,96.97
2019-02-02T03:38:25.972Z,96.82
2019-02-02T03:39:25.965Z,96.97
2019-02-02T03:40:25.948Z,97.07
2019-02-02T03:41:25.954Z,96.97
2019-02-02T03:42:25.922Z,96.82
2019-02-02T03:43:25.937Z,96.23
2019-02-02T03:44:25.907Z,96.03
2019-02-02T03:45:25.897Z,96.13
2019-02-02T03:46:25.888Z,95.98
2019-02-02T03:47:25.890Z,95.78
2019-02-02T03:48:25.863Z,96.03
2019-02-02T03:49:25.855Z,96.09
2019-02-02T03:50:25.870Z,95.98
2019-02-02T03:51:25.989Z,95.92
2019-02-02T03:52:25.823Z,95.78
2019-02-02T03:53:25.821Z,95.98
2019-02-02T03:54:25.794Z,95.98
2019-02-02T03:55:25.789Z,95.88
2019-02-02T03:56:25.783Z,95.92
2019-02-02T03:57:25.777Z,95.78
2019-02-02T03:58:25.771Z,95.78
2019-02-02T03:59:25.748Z,95.88
2019-02-02T04:00:25.737Z,95.78
2019-02-02T04:01:25.726Z,95.46
2019-02-02T04:02:25.720Z,95.09
2019-02-02T04:03:25.730Z,95.46
2019-02-02T04:04:25.690Z,95.25
2019-02-02T04:05:25.713Z,95.36
2019-02-02T04:06:25.668Z,95.15
2019-02-02T04:07:25.661Z,95.15
2019-02-02T04:08:25.650Z,95.04
2019-02-02T04:09:25.651Z,95.15
2019-02-02T04:10:25.634Z,95.15
2019-02-02T04:11:25.622Z,95.36
2019-02-02T04:12:25.619Z,95.15
2019-02-02T04:13:25.600Z,94.94
2019-02-02T04:14:25.613Z,95.25
2019-02-02T04:15:25.579Z,95.04
2019-02-02T04:16:25.568Z,95.25
2019-02-02T04:17:25.558Z,95.04
2019-02-02T04:18:25.545Z,95.25
2019-02-02T04:19:25.530Z,95.15
2019-02-02T04:20:25.554Z,95.25
2019-02-02T04:21:25.512Z,95.04
2019-02-02T04:22:25.506Z,95.36
2019-02-02T04:23:25.489Z,95.04
2019-02-02T04:24:25.486Z,95.15
2019-02-02T04:25:25.473Z,95.15
2019-02-02T04:26:25.472Z,95.25
2019-02-02T04:27:25.452Z,95.04
2019-02-02T04:28:25.435Z,95.15
2019-02-02T04:29:25.428Z,95.00
2019-02-02T04:30:25.450Z,94.84
2019-02-02T04:31:25.409Z,95.00
2019-02-02T04:32:25.395Z,94.73
2019-02-02T04:33:25.383Z,94.90
2019-02-02T04:34:25.372Z,95.21
2019-02-02T04:35:25.477Z,94.84
2019-02-02T04:36:25.363Z,95.04
2019-02-02T04:37:25.348Z,94.69
2019-02-02T04:38:25.331Z,95.21
2019-02-02T04:39:25.491Z,94.79
2019-02-02T04:40:25.311Z,94.42
2019-02-02T04:41:25.315Z,94.27
2019-02-02T04:42:25.297Z,94.37
2019-02-02T04:43:25.284Z,94.58
2019-02-02T04:44:25.273Z,94.17
2019-02-02T04:45:25.266Z,94.06
2019-02-02T04:46:25.263Z,94.58
2019-02-02T04:47:25.250Z,94.58
2019-02-02T04:48:25.226Z,94.48
2019-02-02T04:49:25.214Z,94.63
2019-02-02T04:50:25.213Z,95.46
2019-02-02T04:51:25.194Z,95.21
2019-02-02T04:52:25.214Z,94.90
2019-02-02T04:53:25.180Z,94.94
2019-02-02T04:54:25.166Z,95.04
2019-02-02T04:55:25.159Z,95.25
2019-02-02T04:56:32.973Z,94.94
2019-02-02T04:57:25.134Z,95.00
2019-02-02T04:58:25.135Z,95.00
2019-02-02T04:59:29.233Z,95.00
2019-02-02T05:00:25.104Z,95.21
2019-02-02T05:01:25.091Z,95.10
2019-02-02T05:02:25.084Z,95.04
2019-02-02T05:03:25.079Z,95.15
2019-02-02T05:04:25.062Z,94.94
2019-02-02T05:05:25.048Z,94.94
2019-02-02T05:06:25.038Z,94.73
2019-02-02T05:07:25.026Z,95.04
2019-02-02T05:08:25.025Z,94.94
2019-02-02T05:09:25.010Z,95.15
2019-02-02T05:10:24.994Z,95.04
2019-02-02T05:11:24.984Z,94.84
2019-02-02T05:12:24.974Z,94.94
2019-02-02T05:13:24.988Z,95.04
2019-02-02T05:14:24.957Z,95.15
2019-02-02T05:15:24.947Z,94.84
2019-02-02T05:16:24.932Z,94.94
2019-02-02T05:17:24.927Z,94.94
2019-02-02T05:18:24.915Z,95.04
2019-02-02T05:19:24.919Z,95.04
2019-02-02T05:20:24.896Z,95.04
2019-02-02T05:21:24.880Z,95.25
2019-02-02T05:22:24.875Z,95.15
2019-02-02T05:23:24.865Z,94.84
2019-02-02T05:24:24.848Z,94.94
2019-02-02T05:25:24.851Z,95.15
2019-02-02T05:26:24.827Z,95.04
2019-02-02T05:27:24.816Z,95.04
2019-02-02T05:28:24.812Z,94.94
2019-02-02T05:29:24.798Z,95.25
2019-02-02T05:30:24.801Z,95.15
2019-02-02T05:31:24.779Z,95.15
2019-02-02T05:32:24.768Z,95.15
2019-02-02T05:33:24.755Z,94.94
2019-02-02T05:34:24.762Z,95.15
2019-02-02T05:35:24.740Z,95.36
2019-02-02T05:36:24.723Z,95.56
2019-02-02T05:37:24.711Z,95.36
2019-02-02T05:38:24.707Z,95.46
2019-02-02T05:39:24.692Z,94.84
2019-02-02T05:40:24.706Z,95.36
2019-02-02T05:41:24.671Z,95.25
2019-02-02T05:42:24.663Z,95.56
2019-02-02T05:43:24.655Z,95.25
2019-02-02T05:44:24.638Z,94.94
2019-02-02T05:45:24.671Z,95.46
2019-02-02T05:46:24.624Z,94.52
2019-02-02T05:47:24.607Z,95.36
2019-02-02T05:48:24.596Z,94.84
2019-02-02T05:49:24.593Z,95.25
2019-02-02T05:50:24.620Z,94.73
2019-02-02T05:51:24.568Z,94.94
2019-02-02T05:52:24.557Z,95.25
2019-02-02T05:53:24.543Z,94.94
2019-02-02T05:54:24.538Z,94.84
2019-02-02T05:55:24.535Z,95.25
2019-02-02T05:56:24.521Z,95.15
2019-02-02T05:57:24.502Z,94.84
2019-02-02T05:58:24.505Z,95.15
2019-02-02T05:59:24.482Z,94.84
2019-02-02T06:00:24.474Z,94.94
2019-02-02T06:01:24.476Z,94.84
2019-02-02T06:02:24.458Z,94.84
2019-02-02T06:03:24.449Z,95.25
2019-02-02T06:04:24.446Z,95.04
2019-02-02T06:05:24.430Z,95.25
2019-02-02T06:06:24.424Z,95.56
2019-02-02T06:07:24.405Z,94.73
2019-02-02T06:08:24.395Z,94.63
2019-02-02T06:09:24.386Z,94.73
2019-02-02T06:10:24.376Z,94.58
2019-02-02T06:11:24.368Z,94.52
2019-02-02T06:12:24.352Z,95.21
2019-02-02T06:13:24.336Z,94.63
2019-02-02T06:14:24.330Z,94.52
2019-02-02T06:15:24.316Z,94.73
2019-02-02T06:16:24.310Z,94.63
2019-02-02T06:17:24.291Z,94.84
2019-02-02T06:18:24.289Z,94.94
2019-02-02T06:19:24.271Z,95.46
2019-02-02T06:20:24.265Z,95.04
2019-02-02T06:21:24.284Z,95.04
2019-02-02T06:22:24.257Z,95.25
2019-02-02T06:23:24.229Z,95.25
2019-02-02T06:24:24.218Z,95.10
2019-02-02T06:25:24.215Z,95.25
2019-02-02T06:26:24.204Z,95.46
2019-02-02T06:27:24.199Z,94.69
2019-02-02T06:28:24.181Z,95.56
2019-02-02T06:29:24.183Z,95.25
2019-02-02T06:30:24.157Z,95.15
2019-02-02T06:31:24.151Z,95.36
2019-02-02T06:32:24.165Z,95.31
2019-02-02T06:33:24.129Z,94.69
2019-02-02T06:34:24.114Z,94.37
2019-02-02T06:35:24.110Z,94.17
2019-02-02T06:36:24.091Z,94.17
2019-02-02T06:37:24.083Z,94.27
2019-02-02T06:38:24.081Z,94.27
2019-02-02T06:39:24.067Z,94.17
2019-02-02T06:40:24.169Z,94.69
2019-02-02T06:41:24.047Z,95.42
2019-02-02T06:42:24.034Z,95.46
2019-02-02T06:43:24.048Z,95.31
2019-02-02T06:44:24.014Z,95.31
2019-02-02T06:45:24.017Z,95.21
2019-02-02T06:46:23.996Z,94.58
2019-02-02T06:47:23.977Z,94.27
2019-02-02T06:48:23.995Z,94.12
2019-02-02T06:49:23.971Z,93.96
2019-02-02T06:50:23.959Z,94.27
2019-02-02T06:51:23.949Z,93.85
2019-02-02T06:52:23.940Z,94.17
2019-02-02T06:53:23.936Z,94.06
2019-02-02T06:54:24.008Z,94.37
2019-02-02T06:55:23.899Z,94.27
2019-02-02T06:56:23.888Z,94.79
2019-02-02T06:57:23.873Z,95.10
2019-02-02T06:58:23.870Z,94.69
2019-02-02T06:59:23.851Z,94.69
2019-02-02T07:00:26.329Z,95.21
2019-02-02T07:01:23.830Z,94.90
2019-02-02T07:02:23.824Z,94.90
2019-02-02T07:03:23.813Z,95.21
2019-02-02T07:04:23.800Z,95.31
2019-02-02T07:05:23.831Z,95.00
2019-02-02T07:06:23.780Z,95.00
2019-02-02T07:07:23.768Z,95.10
2019-02-02T07:08:23.766Z,95.10
2019-02-02T07:09:23.751Z,95.10
2019-02-02T07:10:23.743Z,95.21
2019-02-02T07:11:23.737Z,95.10
2019-02-02T07:12:23.713Z,95.00
2019-02-02T07:13:23.716Z,95.00
2019-02-02T07:14:23.692Z,94.90
2019-02-02T07:15:23.683Z,95.00
2019-02-02T07:16:23.673Z,95.31
2019-02-02T07:17:23.676Z,95.31
2019-02-02T07:18:23.660Z,95.25
2019-02-02T07:19:23.645Z,95.73
2019-02-02T07:20:23.669Z,95.94
2019-02-02T07:21:23.624Z,95.73
2019-02-02T07:22:23.623Z,95.52
2019-02-02T07:23:23.605Z,95.73
2019-02-02T07:24:23.587Z,95.62
2019-02-02T07:25:23.578Z,95.73
2019-02-02T07:26:23.574Z,95.73
2019-02-02T07:27:23.570Z,95.73
2019-02-02T07:28:23.551Z,95.73
2019-02-02T07:29:23.535Z,95.73
2019-02-02T07:30:28.867Z,95.73
2019-02-02T07:31:24.528Z,96.04
2019-02-02T07:32:23.513Z,96.77
2019-02-02T07:33:23.496Z,96.77
2019-02-02T07:34:23.489Z,96.77
2019-02-02T07:35:23.475Z,96.67
2019-02-02T07:36:23.462Z,96.77
2019-02-02T07:37:23.455Z,96.67
2019-02-02T07:38:23.446Z,96.88
2019-02-02T07:39:23.439Z,96.67
2019-02-02T07:40:23.422Z,96.67
2019-02-02T07:41:23.416Z,96.88
2019-02-02T07:42:23.397Z,96.73
2019-02-02T07:43:23.399Z,95.79
2019-02-02T07:44:23.490Z,95.37
2019-02-02T07:45:23.368Z,95.58
2019-02-02T07:46:23.362Z,95.37
2019-02-02T07:47:23.351Z,95.17
2019-02-02T07:48:23.351Z,94.96
2019-02-02T07:49:30.367Z,95.06
2019-02-02T07:50:23.316Z,94.85
2019-02-02T07:51:23.311Z,94.96
2019-02-02T07:52:23.295Z,95.06
2019-02-02T07:53:23.280Z,94.64
2019-02-02T07:54:23.275Z,95.27
2019-02-02T07:55:23.267Z,94.96
2019-02-02T07:56:23.256Z,95.27
2019-02-02T07:57:23.242Z,94.64
2019-02-02T07:58:23.227Z,94.64
2019-02-02T07:59:23.222Z,95.37
2019-02-02T08:00:23.219Z,95.17
2019-02-02T08:01:23.201Z,94.54
2019-02-02T08:02:23.190Z,94.64
2019-02-02T08:03:23.180Z,94.64
2019-02-02T08:04:23.171Z,94.64
2019-02-02T08:05:23.179Z,94.96
2019-02-02T08:06:23.150Z,95.06
2019-02-02T08:07:23.133Z,94.85
2019-02-02T08:08:23.122Z,94.85
2019-02-02T08:09:23.117Z,94.85
2019-02-02T08:10:23.109Z,94.81
2019-02-02T08:11:23.099Z,94.96
2019-02-02T08:12:23.087Z,95.06
2019-02-02T08:13:23.077Z,95.06
2019-02-02T08:14:23.127Z,94.85
2019-02-02T08:15:23.056Z,94.81
2019-02-02T08:16:23.040Z,94.85
2019-02-02T08:17:23.028Z,94.85
2019-02-02T08:18:23.129Z,94.75
2019-02-02T08:19:25.632Z,94.75
2019-02-02T08:20:23.009Z,95.17
2019-02-02T08:21:22.983Z,94.85
2019-02-02T08:22:22.977Z,94.96
2019-02-02T08:23:22.968Z,95.06
2019-02-02T08:24:22.959Z,95.37
2019-02-02T08:25:22.948Z,95.68
2019-02-02T08:26:22.941Z,95.58
2019-02-02T08:27:23.010Z,95.37
2019-02-02T08:28:22.911Z,95.06
2019-02-02T08:29:22.916Z,95.27
2019-02-02T08:30:22.902Z,95.17
2019-02-02T08:31:22.907Z,95.17
2019-02-02T08:32:22.870Z,95.12
2019-02-02T08:33:22.871Z,95.23
2019-02-02T08:34:22.860Z,95.02
2019-02-02T08:35:22.832Z,95.02
2019-02-02T08:36:22.829Z,95.12
2019-02-02T08:37:22.822Z,95.23
2019-02-02T08:38:22.808Z,94.70
2019-02-02T08:39:29.277Z,94.64
2019-02-02T08:40:23.838Z,95.23
2019-02-02T08:41:22.773Z,95.64
2019-02-02T08:42:22.757Z,95.95
2019-02-02T08:43:22.752Z,96.06
2019-02-02T08:44:22.739Z,95.64
2019-02-02T08:45:22.736Z,95.54
2019-02-02T08:46:22.721Z,95.12
2019-02-02T08:47:22.706Z,94.92
2019-02-02T08:48:22.693Z,95.02
2019-02-02T08:49:22.697Z,95.12
2019-02-02T08:50:22.694Z,95.12
2019-02-02T08:51:22.661Z,95.12
2019-02-02T08:52:22.666Z,94.60
2019-02-02T08:53:22.659Z,95.12
2019-02-02T08:54:22.660Z,95.23
2019-02-02T08:55:23.570Z,95.02
2019-02-02T08:56:22.653Z,95.02
2019-02-02T08:57:22.627Z,95.02
2019-02-02T08:58:22.717Z,95.02
2019-02-02T08:59:22.574Z,95.02
2019-02-02T09:00:22.578Z,95.02
2019-02-02T09:01:22.558Z,95.12
2019-02-02T09:02:22.553Z,94.98
2019-02-02T09:03:22.542Z,94.92
2019-02-02T09:04:22.587Z,95.02
2019-02-02T09:05:22.565Z,95.08
2019-02-02T09:06:22.509Z,94.98
2019-02-02T09:07:22.492Z,95.12
2019-02-02T09:08:22.483Z,94.98
2019-02-02T09:09:22.481Z,95.60
2019-02-02T09:10:22.456Z,95.60
2019-02-02T09:11:22.527Z,95.29
2019-02-02T09:12:22.435Z,95.29
2019-02-02T09:13:22.430Z,94.92
2019-02-02T09:14:22.418Z,95.08
2019-02-02T09:15:22.409Z,94.87
2019-02-02T09:16:22.404Z,95.08
2019-02-02T09:17:22.505Z,94.98
2019-02-02T09:18:22.384Z,94.98
2019-02-02T09:19:22.366Z,94.98
2019-02-02T09:20:22.350Z,95.08
2019-02-02T09:21:22.338Z,94.98
2019-02-02T09:22:22.328Z,95.08
2019-02-02T09:23:22.362Z,94.87
2019-02-02T09:24:22.308Z,94.87
2019-02-02T09:25:22.298Z,95.18
2019-02-02T09:26:22.287Z,95.70
2019-02-02T09:27:22.284Z,95.50
2019-02-02T09:28:22.262Z,94.76
2019-02-02T09:29:22.261Z,94.98
2019-02-02T09:30:22.251Z,95.08
2019-02-02T09:31:22.240Z,94.98
2019-02-02T09:32:22.225Z,94.66
2019-02-02T09:33:22.249Z,94.87
2019-02-02T09:34:22.208Z,94.98
2019-02-02T09:35:22.188Z,95.29
2019-02-02T09:36:22.184Z,94.14
2019-02-02T09:37:22.172Z,94.10
2019-02-02T09:38:22.164Z,93.58
2019-02-02T09:39:22.189Z,93.79
2019-02-02T09:40:22.134Z,93.68
2019-02-02T09:41:22.129Z,93.58
2019-02-02T09:42:22.120Z,94.14
2019-02-02T09:43:22.114Z,94.14
2019-02-02T09:44:22.100Z,94.24
2019-02-02T09:45:22.092Z,94.14
2019-02-02T09:46:22.076Z,94.45
2019-02-02T09:47:22.062Z,94.31
2019-02-02T09:48:22.064Z,94.31
2019-02-02T09:49:22.047Z,94.51
2019-02-02T09:50:22.042Z,94.72
2019-02-02T09:51:22.033Z,94.31
2019-02-02T09:52:22.011Z,94.10
2019-02-02T09:53:21.996Z,94.10
2019-02-02T09:54:26.529Z,93.89
2019-02-02T09:55:22.975Z,93.68
2019-02-02T09:56:21.978Z,94.10
2019-02-02T09:57:21.953Z,93.79
2019-02-02T09:58:21.948Z,93.68
2019-02-02T09:59:21.934Z,93.48
2019-02-02T10:00:21.927Z,93.68
2019-02-02T10:01:27.688Z,93.79
2019-02-02T10:02:22.914Z,93.33
2019-02-02T10:03:21.897Z,93.64
2019-02-02T10:04:21.884Z,93.89
2019-02-02T10:05:21.873Z,93.23
2019-02-02T10:06:21.867Z,93.48
2019-02-02T10:07:21.871Z,93.74
2019-02-02T10:08:21.837Z,93.68
2019-02-02T10:09:21.825Z,93.64
2019-02-02T10:10:21.814Z,93.43
2019-02-02T10:11:21.810Z,93.68
2019-02-02T10:12:21.811Z,92.91
2019-02-02T10:13:21.799Z,93.43
2019-02-02T10:14:21.772Z,93.54
2019-02-02T10:15:21.760Z,93.37
2019-02-02T10:16:21.756Z,93.43
2019-02-02T10:17:21.745Z,93.48
2019-02-02T10:18:21.773Z,93.54
2019-02-02T10:19:21.719Z,93.23
2019-02-02T10:20:21.713Z,93.43
2019-02-02T10:21:21.697Z,93.37
2019-02-02T10:22:21.686Z,93.23
2019-02-02T10:23:21.677Z,93.12
2019-02-02T10:24:21.714Z,92.91
2019-02-02T10:25:21.660Z,92.95
2019-02-02T10:26:21.659Z,93.16
2019-02-02T10:27:21.656Z,93.37
2019-02-02T10:28:21.641Z,93.33
2019-02-02T10:29:21.615Z,93.27
2019-02-02T10:30:22.876Z,93.33
2019-02-02T10:31:21.591Z,93.05
2019-02-02T10:32:21.580Z,93.23
2019-02-02T10:33:21.591Z,92.70
2019-02-02T10:34:21.599Z,92.91
2019-02-02T10:35:21.547Z,93.33
2019-02-02T10:36:21.549Z,93.23
2019-02-02T10:37:21.536Z,93.01
2019-02-02T10:38:21.517Z,93.01
2019-02-02T10:39:21.504Z,93.12
2019-02-02T10:40:21.508Z,93.16
2019-02-02T10:41:21.486Z,93.33
2019-02-02T10:42:21.480Z,93.23
2019-02-02T10:43:21.468Z,93.74
2019-02-02T10:44:21.459Z,93.43
2019-02-02T10:45:21.455Z,93.54
2019-02-02T10:46:21.434Z,93.64
2019-02-02T10:47:21.420Z,93.54
2019-02-02T10:48:21.415Z,93.23
2019-02-02T10:49:21.400Z,93.43
2019-02-02T10:50:21.435Z,93.33
2019-02-02T10:51:21.441Z,93.23
2019-02-02T10:52:21.370Z,93.12
2019-02-02T10:53:21.356Z,93.01
2019-02-02T10:54:21.361Z,92.80
2019-02-02T10:55:21.334Z,92.70
2019-02-02T10:56:28.388Z,92.80
2019-02-02T10:57:21.322Z,93.33
2019-02-02T10:58:21.304Z,93.12
2019-02-02T10:59:21.293Z,93.33
2019-02-02T11:00:21.286Z,93.33
2019-02-02T11:01:21.284Z,93.23
2019-02-02T11:02:21.264Z,93.12
2019-02-02T11:03:21.254Z,92.49
2019-02-02T11:04:21.278Z,93.33
2019-02-02T11:05:21.376Z,93.01
2019-02-02T11:06:21.401Z,92.80
2019-02-02T11:07:21.259Z,93.12
2019-02-02T11:08:21.228Z,92.60
2019-02-02T11:09:21.192Z,92.49
2019-02-02T11:10:21.281Z,93.12
2019-02-02T11:11:21.207Z,93.74
2019-02-02T11:12:21.173Z,93.12
2019-02-02T11:13:21.227Z,92.70
2019-02-02T11:14:21.144Z,92.60
2019-02-02T11:15:21.158Z,92.70
2019-02-02T11:16:21.216Z,92.70
2019-02-02T11:17:21.243Z,92.91
2019-02-02T11:18:21.140Z,93.23
2019-02-02T11:19:21.161Z,93.12
2019-02-02T11:20:21.160Z,93.01
2019-02-02T11:21:21.097Z,93.12
2019-02-02T11:22:21.191Z,93.01
2019-02-02T11:23:21.038Z,93.54
2019-02-02T11:24:21.033Z,93.64
2019-02-02T11:25:21.024Z,93.54
2019-02-02T11:26:21.038Z,93.12
2019-02-02T11:27:21.015Z,93.12
2019-02-02T11:28:21.004Z,93.33
2019-02-02T11:29:20.982Z,92.60
2019-02-02T11:30:20.986Z,93.64
2019-02-02T11:31:20.958Z,93.23
2019-02-02T11:32:20.947Z,92.80
2019-02-02T11:33:20.942Z,93.23
2019-02-02T11:34:20.922Z,92.70
2019-02-02T11:35:20.916Z,93.23
2019-02-02T11:36:20.900Z,93.01
2019-02-02T11:37:20.925Z,93.64
2019-02-02T11:38:20.887Z,93.43
2019-02-02T11:39:20.867Z,92.70
2019-02-02T11:40:20.870Z,93.01
2019-02-02T11:41:20.853Z,93.01
2019-02-02T11:42:20.840Z,93.01
2019-02-02T11:43:20.882Z,93.60
2019-02-02T11:44:20.820Z,93.54
2019-02-02T11:45:20.804Z,93.01
2019-02-02T11:46:20.802Z,92.80
2019-02-02T11:47:20.787Z,92.80
2019-02-02T11:48:20.772Z,93.01
2019-02-02T11:49:23.819Z,92.80
2019-02-02T11:50:20.750Z,92.70
2019-02-02T11:51:20.747Z,92.49
2019-02-02T11:52:23.241Z,92.80
2019-02-02T11:53:20.718Z,93.01
2019-02-02T11:54:20.743Z,93.23
2019-02-02T11:55:20.700Z,92.60
2019-02-02T11:56:20.700Z,92.91
2019-02-02T11:57:20.675Z,92.91
2019-02-02T11:58:20.664Z,93.64
2019-02-02T11:59:20.751Z,93.43
2019-02-02T12:00:20.683Z,92.70
2019-02-02T12:01:20.638Z,93.23
2019-02-02T12:02:20.631Z,92.39
2019-02-02T12:03:20.621Z,92.91
2019-02-02T12:04:20.602Z,93.23
2019-02-02T12:05:20.597Z,93.12
2019-02-02T12:06:20.596Z,93.43
2019-02-02T12:07:20.574Z,93.54
2019-02-02T12:08:20.566Z,93.68
2019-02-02T12:09:20.556Z,93.23
2019-02-02T12:10:20.550Z,93.12
2019-02-02T12:11:20.530Z,93.01
2019-02-02T12:12:20.526Z,93.54
2019-02-02T12:13:20.522Z,93.23
2019-02-02T12:14:20.503Z,93.16
2019-02-02T12:15:20.492Z,93.23
2019-02-02T12:16:20.578Z,93.54
2019-02-02T12:17:20.492Z,93.12
2019-02-02T12:18:20.458Z,93.27
2019-02-02T12:19:20.446Z,93.23
2019-02-02T12:20:20.431Z,93.43
2019-02-02T12:21:20.428Z,93.33
2019-02-02T12:22:20.409Z,93.79
2019-02-02T12:23:20.415Z,93.64
2019-02-02T12:24:20.392Z,94.06
2019-02-02T12:25:20.382Z,94.16
2019-02-02T12:26:20.372Z,93.95
2019-02-02T12:27:20.359Z,93.64
2019-02-02T12:28:20.356Z,93.74
2019-02-02T12:29:20.338Z,93.74
2019-02-02T12:30:20.335Z,93.54
2019-02-02T12:31:20.314Z,93.64
2019-02-02T12:32:26.739Z,93.43
2019-02-02T12:33:21.309Z,93.74
2019-02-02T12:34:20.286Z,93.43
2019-02-02T12:35:20.277Z,93.74
2019-02-02T12:36:20.263Z,93.64
2019-02-02T12:37:20.247Z,93.85
2019-02-02T12:38:20.297Z,93.85
2019-02-02T12:39:20.226Z,93.54
2019-02-02T12:40:20.219Z,93.23
2019-02-02T12:41:20.211Z,93.43
2019-02-02T12:42:20.195Z,93.64
2019-02-02T12:43:20.190Z,93.54
2019-02-02T12:44:20.192Z,93.85
2019-02-02T12:45:20.173Z,93.70
2019-02-02T12:46:20.151Z,93.85
2019-02-02T12:47:20.818Z,93.54
2019-02-02T12:48:20.139Z,93.43
2019-02-02T12:49:20.129Z,93.80
2019-02-02T12:50:20.110Z,93.23
2019-02-02T12:51:20.103Z,93.49
2019-02-02T12:52:20.094Z,93.54